Time;durP1;ratioP1;P1;durP2;ratioP2;P2;SDS_P1;SDS_P2;PMS_P1;PMS_P2;Temp;Humidity;BMP_temperature;BMP_pressure;BME280_temperature;BME280_humidity;BME280_pressure;Samples;Min_cycle;Max_cycle;Signal;HPM_P1;HPM_P2
2020/12/03 05:23:30;;;;;;;1999.90;999.90;;;-2.40;99.90;;;;;;5065631;28;20578;-48
2020/12/03 05:25:57;;;;;;;1999.90;999.90;;;-2.40;99.90;;;;;;5049027;28;20292;-48
2020/12/03 05:28:53;;;;;;;1999.90;999.90;;;-2.40;99.90;;;;;;5048428;28;20216;-48
2020/12/03 05:31:32;;;;;;;1999.90;999.90;;;-2.30;99.90;;;;;;5046587;28;20185;-47
2020/12/03 05:34:10;;;;;;;1999.90;999.90;;;-2.30;99.90;;;;;;5042947;28;20432;-47
2020/12/03 05:36:55;;;;;;;1999.90;999.90;;;-2.30;99.90;;;;;;5043412;28;20428;-48
2020/12/03 05:39:28;;;;;;;1999.90;999.90;;;-2.30;99.90;;;;;;5038145;28;20448;-48
2020/12/03 05:42:00;;;;;;;1999.90;999.90;;;-2.30;99.90;;;;;;5047120;28;20497;-48
2020/12/03 05:44:36;;;;;;;1999.90;999.90;;;-2.30;99.90;;;;;;5049437;28;20412;-48
2020/12/03 05:47:05;;;;;;;1999.90;999.90;;;-2.30;99.90;;;;;;5042344;28;20505;-49
2020/12/03 05:49:38;;;;;;;1999.90;999.90;;;-2.30;99.90;;;;;;5041260;28;20506;-48
2020/12/03 05:52:25;;;;;;;1999.90;999.90;;;-2.30;99.90;;;;;;5041311;28;20433;-49
2020/12/03 05:55:05;;;;;;;1999.90;999.90;;;-2.30;99.90;;;;;;5047022;28;20433;-47
2020/12/03 05:57:49;;;;;;;1999.90;999.90;;;-2.30;99.90;;;;;;5042310;28;20467;-49
2020/12/03 06:00:25;;;;;;;1999.90;999.90;;;-2.30;99.90;;;;;;5044511;28;20443;-48
2020/12/03 06:02:56;;;;;;;1999.90;999.90;;;-2.30;99.90;;;;;;5035911;28;20520;-48
2020/12/03 06:05:35;;;;;;;1999.90;999.90;;;-2.40;99.90;;;;;;5038484;28;20440;-48
2020/12/03 06:08:32;;;;;;;1999.90;999.90;;;-2.30;99.90;;;;;;5037018;28;20489;-48
2020/12/03 06:11:05;;;;;;;1999.90;999.90;;;-2.40;99.90;;;;;;5043848;28;20433;-48
2020/12/03 06:13:52;;;;;;;1999.90;999.90;;;-2.40;99.90;;;;;;5045926;28;20432;-48
2020/12/03 06:16:40;;;;;;;1999.90;999.90;;;-2.40;99.90;;;;;;5050346;28;20443;-48
2020/12/03 06:19:09;;;;;;;1999.90;999.90;;;-2.40;99.90;;;;;;5046320;28;20535;-48
2020/12/03 06:21:50;;;;;;;1999.90;999.90;;;-2.40;99.90;;;;;;5055622;28;20470;-48
2020/12/03 06:24:43;;;;;;;1999.90;999.90;;;-2.40;99.90;;;;;;5046958;28;20442;-48
2020/12/03 06:27:27;;;;;;;1999.90;999.90;;;-2.40;99.90;;;;;;5047877;28;20443;-48
2020/12/03 06:30:18;;;;;;;1999.90;999.90;;;-2.50;99.90;;;;;;5045566;28;20449;-47
2020/12/03 06:32:44;;;;;;;1999.90;999.90;;;-2.40;99.90;;;;;;5043037;28;20201;-48
2020/12/03 06:35:22;;;;;;;1999.90;999.90;;;-2.40;99.90;;;;;;5028712;28;20441;-48
2020/12/03 06:38:09;;;;;;;1999.90;999.90;;;-2.40;99.90;;;;;;5033066;28;20205;-48
2020/12/03 06:40:39;;;;;;;1999.90;999.90;;;-2.40;99.90;;;;;;5031271;28;20804;-49
2020/12/03 06:43:22;;;;;;;1999.90;999.90;;;-2.40;99.90;;;;;;5032877;28;20508;-48
2020/12/03 06:45:57;;;;;;;1999.90;999.90;;;-2.40;99.90;;;;;;5017302;28;20931;-49
2020/12/03 06:48:49;;;;;;;1999.90;999.90;;;-2.40;99.90;;;;;;5028437;28;20456;-48
2020/12/03 06:51:38;;;;;;;1999.90;999.90;;;-2.40;99.90;;;;;;5003451;28;20472;-48
2020/12/03 06:54:03;;;;;;;1999.90;999.90;;;-2.40;99.90;;;;;;5015475;28;20429;-49
2020/12/03 06:56:41;;;;;;;1999.90;999.90;;;-2.30;99.90;;;;;;5027244;28;20444;-48
2020/12/03 06:59:44;;;;;;;1999.90;999.90;;;-2.30;99.90;;;;;;5034103;28;20225;-47
2020/12/03 07:02:34;;;;;;;1999.90;999.90;;;-2.20;99.90;;;;;;5031023;28;20969;-48
2020/12/03 07:05:29;;;;;;;1999.90;999.90;;;-2.30;99.90;;;;;;5030339;28;20478;-48
2020/12/03 07:08:28;;;;;;;1999.90;999.90;;;-2.30;99.90;;;;;;5026102;28;20461;-48
2020/12/03 07:11:15;;;;;;;1999.90;999.90;;;-2.30;99.90;;;;;;5015722;28;20436;-48
2020/12/03 07:14:19;;;;;;;1999.90;999.90;;;-2.30;99.90;;;;;;5027877;28;20942;-49
2020/12/03 07:17:06;;;;;;;1999.90;999.90;;;-2.30;99.90;;;;;;5030462;28;20440;-48
2020/12/03 07:19:46;;;;;;;1999.90;999.90;;;-2.30;99.90;;;;;;5023503;28;20565;-48
2020/12/03 07:22:31;;;;;;;1999.90;999.90;;;-2.20;99.90;;;;;;5022098;28;20473;-47
2020/12/03 07:24:57;;;;;;;1999.90;999.90;;;-2.30;99.90;;;;;;5028636;28;20444;-48
2020/12/03 07:27:38;;;;;;;1999.90;999.90;;;-2.20;99.90;;;;;;5020376;28;20454;-48
2020/12/03 07:30:12;;;;;;;1999.90;999.90;;;-2.20;99.90;;;;;;5027009;28;20436;-48
2020/12/03 07:33:07;;;;;;;1999.90;999.90;;;-2.20;99.90;;;;;;5021645;28;20464;-48
2020/12/03 07:36:03;;;;;;;1999.90;999.90;;;-2.10;99.90;;;;;;5016635;28;20529;-48
2020/12/03 07:38:35;;;;;;;1999.90;999.90;;;-2.10;99.90;;;;;;5031982;28;20439;-49
2020/12/03 07:41:02;;;;;;;1999.90;999.90;;;-2.10;99.90;;;;;;5020455;28;20425;-48
2020/12/03 07:43:36;;;;;;;1999.90;999.90;;;-2.20;99.90;;;;;;5019947;28;21024;-49
2020/12/03 07:46:23;;;;;;;1999.90;999.90;;;-2.20;99.90;;;;;;5021675;28;20461;-48
2020/12/03 07:48:49;;;;;;;1999.90;999.90;;;-2.20;99.90;;;;;;5015875;28;21545;-49
2020/12/03 07:51:17;;;;;;;1999.90;999.90;;;-2.10;99.90;;;;;;5022602;28;20437;-50
2020/12/03 07:53:43;;;;;;;1999.90;999.90;;;-2.10;99.90;;;;;;5019219;28;20966;-48
2020/12/03 07:56:27;;;;;;;1999.90;999.90;;;-2.10;99.90;;;;;;5022287;28;20466;-48
2020/12/03 07:58:54;;;;;;;1999.90;999.90;;;-2.10;99.90;;;;;;5020439;28;20457;-48
2020/12/03 08:01:25;;;;;;;1999.90;999.90;;;-2.10;99.90;;;;;;5022916;28;20734;-48
2020/12/03 08:03:52;;;;;;;1999.90;999.90;;;-2.10;99.90;;;;;;5025234;28;20524;-47
2020/12/03 08:06:22;;;;;;;1999.90;999.90;;;-2.20;99.90;;;;;;5020648;28;20483;-48
2020/12/03 08:09:09;;;;;;;1999.90;999.90;;;-2.10;99.90;;;;;;5018270;28;20973;-49
2020/12/03 08:11:46;;;;;;;1999.90;999.90;;;-2.10;99.90;;;;;;5024437;28;20532;-48
2020/12/03 08:14:34;;;;;;;1999.90;999.90;;;-2.00;99.90;;;;;;5028154;28;20485;-48
2020/12/03 08:17:01;;;;;;;1999.90;999.90;;;-2.10;99.90;;;;;;5022534;28;20676;-48
2020/12/03 08:19:34;;;;;;;1999.90;999.90;;;-2.10;99.90;;;;;;5026338;28;20474;-48
2020/12/03 13:21:32;;;;;;;1999.90;999.90;;;-0.30;99.90;;;;;;5047753;28;20573;-48
2020/12/03 13:24:01;;;;;;;1999.90;999.90;;;-0.40;99.90;;;;;;5047330;28;20420;-48
2020/12/03 13:26:27;;;;;;;1999.90;999.90;;;-0.40;99.90;;;;;;5045483;28;20433;-48
2020/12/03 13:28:53;;;;;;;1999.90;999.90;;;-0.30;99.90;;;;;;5048061;28;20500;-49
2020/12/03 13:31:19;;;;;;;1999.90;999.90;;;-0.30;99.90;;;;;;5044020;28;20515;-48
2020/12/03 13:33:44;;;;;;;1999.90;999.90;;;-0.20;99.90;;;;;;5048181;28;20186;-48
2020/12/03 13:36:10;;;;;;;1999.90;999.90;;;-0.20;99.90;;;;;;5047700;28;20213;-48
2020/12/03 13:38:37;;;;;;;1999.90;999.90;;;-0.20;99.90;;;;;;5040326;28;20202;-48
2020/12/03 13:41:03;;;;;;;1999.90;999.90;;;-0.20;99.90;;;;;;5043384;28;20464;-48
2020/12/03 13:43:29;;;;;;;1999.90;999.90;;;-0.30;99.90;;;;;;5046742;28;20800;-48
2020/12/03 13:45:56;;;;;;;1999.90;999.90;;;-0.20;99.90;;;;;;5047333;28;20440;-48
2020/12/03 13:48:22;;;;;;;1999.90;999.90;;;-0.20;99.90;;;;;;5039993;28;20459;-48
2020/12/03 13:50:47;;;;;;;1999.90;999.90;;;-0.20;99.90;;;;;;5047408;28;20437;-48
2020/12/03 13:53:13;;;;;;;1999.90;999.90;;;-0.30;99.90;;;;;;5041972;28;20568;-48
2020/12/03 13:55:39;;;;;;;1999.90;999.90;;;-0.30;99.90;;;;;;5044658;28;20186;-48
2020/12/03 13:58:04;;;;;;;1999.90;999.90;;;-0.30;99.90;;;;;;5043235;28;20210;-48
2020/12/03 14:00:30;;;;;;;1999.90;999.90;;;-0.30;99.90;;;;;;5040376;28;20215;-48
2020/12/03 14:02:55;;;;;;;1999.90;999.90;;;-0.30;99.90;;;;;;5039713;28;20174;-48
2020/12/03 14:05:21;;;;;;;1999.90;999.90;;;-0.30;99.90;;;;;;5043574;28;20198;-48
2020/12/03 14:07:47;;;;;;;1999.90;999.90;;;-0.30;99.90;;;;;;5045689;28;20278;-48
2020/12/03 14:10:12;;;;;;;1999.90;999.90;;;-0.30;99.90;;;;;;5041797;28;20186;-48
2020/12/03 14:12:38;;;;;;;1999.90;999.90;;;-0.30;99.90;;;;;;5039191;28;20736;-48
2020/12/03 14:15:05;;;;;;;1999.90;999.90;;;-0.30;99.90;;;;;;5045225;28;20187;-48
2020/12/03 14:17:30;;;;;;;1999.90;999.90;;;-0.30;99.90;;;;;;5044403;28;20751;-48
2020/12/03 14:19:56;;;;;;;1999.90;999.90;;;-0.40;99.90;;;;;;5045245;28;20559;-47
2020/12/03 14:22:22;;;;;;;1999.90;999.90;;;-0.40;99.90;;;;;;5045273;28;20175;-48
2020/12/03 14:24:48;;;;;;;1999.90;999.90;;;-0.30;99.90;;;;;;5047156;28;20251;-48
2020/12/03 14:27:14;;;;;;;1999.90;999.90;;;-0.40;99.90;;;;;;5039661;28;20436;-48
2020/12/03 14:29:40;;;;;;;1999.90;999.90;;;-0.50;99.90;;;;;;5044447;28;20443;-48
2020/12/03 14:32:05;;;;;;;1999.90;999.90;;;-0.50;99.90;;;;;;5038467;28;20420;-48
2020/12/03 14:34:32;;;;;;;1999.90;999.90;;;-0.50;99.90;;;;;;5034038;28;20191;-48
2020/12/03 14:36:57;;;;;;;1999.90;999.90;;;-0.60;99.90;;;;;;5029751;28;20266;-48
2020/12/03 14:39:23;;;;;;;1999.90;999.90;;;-0.50;99.90;;;;;;5028400;28;21006;-48
2020/12/03 14:41:49;;;;;;;1999.90;999.90;;;-0.60;99.90;;;;;;5029197;28;20190;-48
2020/12/03 14:44:15;;;;;;;1999.90;999.90;;;-0.60;99.90;;;;;;5029700;28;20225;-48
2020/12/03 14:46:41;;;;;;;1999.90;999.90;;;-0.60;99.90;;;;;;5024789;28;20445;-47
2020/12/03 14:49:07;;;;;;;1999.90;999.90;;;-0.60;99.90;;;;;;5027003;28;20262;-47
2020/12/03 14:51:34;;;;;;;1999.90;999.90;;;-0.60;99.90;;;;;;5030103;28;20851;-48
2020/12/03 14:54:00;;;;;;;1999.90;999.90;;;-0.70;99.90;;;;;;5030403;28;20213;-48
2020/12/03 14:56:26;;;;;;;1999.90;999.90;;;-0.70;99.90;;;;;;5031687;28;20465;-47
2020/12/03 14:58:54;;;;;;;1999.90;999.90;;;-0.70;99.90;;;;;;5024923;28;20203;-48
2020/12/03 15:01:20;;;;;;;1999.90;999.90;;;-0.70;99.90;;;;;;5025081;28;20268;-48
2020/12/03 15:03:46;;;;;;;1999.90;999.90;;;-0.70;99.90;;;;;;5028963;28;20460;-48
2020/12/03 15:06:11;;;;;;;1999.90;999.90;;;-0.70;99.90;;;;;;5030015;28;20193;-48
2020/12/03 15:08:38;;;;;;;1999.90;999.90;;;-0.70;99.90;;;;;;5027071;28;20207;-48
2020/12/03 15:11:04;;;;;;;1999.90;999.90;;;-0.70;99.90;;;;;;5024857;22;21093;-49
2020/12/03 15:13:30;;;;;;;1999.90;999.90;;;-0.70;99.90;;;;;;5008234;28;20448;-49
2020/12/03 15:15:56;;;;;;;1999.90;999.90;;;-0.80;99.90;;;;;;5006670;28;20886;-49
2020/12/03 15:18:23;;;;;;;1999.90;999.90;;;-0.80;99.90;;;;;;5005207;28;20444;-49
2020/12/03 15:20:50;;;;;;;1999.90;999.90;;;-0.80;99.90;;;;;;4998695;28;20766;-50
2020/12/03 15:23:17;;;;;;;1999.90;999.90;;;-0.80;99.90;;;;;;4988233;28;20506;-49
2020/12/03 15:25:43;;;;;;;1999.90;999.90;;;-0.80;99.90;;;;;;4987866;28;20482;-49
2020/12/03 15:28:09;;;;;;;1999.90;999.90;;;-0.90;99.90;;;;;;4989224;28;20428;-48
2020/12/03 15:30:36;;;;;;;1999.90;999.90;;;-0.80;99.90;;;;;;4989316;28;20459;-48
2020/12/03 15:33:02;;;;;;;1999.90;999.90;;;-0.90;99.90;;;;;;4988204;28;20944;-49
2020/12/03 15:35:28;;;;;;;1999.90;999.90;;;-0.90;99.90;;;;;;4989017;28;20970;-48
2020/12/03 15:37:53;;;;;;;1999.90;999.90;;;-0.90;99.90;;;;;;4987871;28;20451;-50
2020/12/03 15:40:21;;;;;;;1999.90;999.90;;;-0.90;99.90;;;;;;4988431;28;20262;-49
2020/12/03 15:42:46;;;;;;;1999.90;999.90;;;-0.90;99.90;;;;;;4984258;28;20188;-49
2020/12/03 15:45:12;;;;;;;1999.90;999.90;;;-1.00;99.90;;;;;;4988344;28;20807;-49
2020/12/03 15:47:38;;;;;;;1999.90;999.90;;;-0.90;99.90;;;;;;4992567;28;20239;-49
2020/12/03 15:50:04;;;;;;;1999.90;999.90;;;-0.90;99.90;;;;;;4994087;28;20199;-48
2020/12/03 15:52:29;;;;;;;1999.90;999.90;;;-1.00;99.90;;;;;;4989005;28;20239;-49
2020/12/03 15:54:55;;;;;;;1999.90;999.90;;;-1.00;99.90;;;;;;4987417;28;20447;-49
2020/12/03 15:57:22;;;;;;;1999.90;999.90;;;-1.00;99.90;;;;;;4989031;28;20195;-49
2020/12/03 15:59:48;;;;;;;1999.90;999.90;;;-1.00;99.90;;;;;;4986328;28;20203;-48
2020/12/03 16:02:16;;;;;;;1999.90;999.90;;;-1.00;99.90;;;;;;4988855;28;20423;-48
2020/12/03 16:04:44;;;;;;;1999.90;999.90;;;-1.10;99.90;;;;;;4984934;28;20531;-48
2020/12/03 16:07:10;;;;;;;1999.90;999.90;;;-1.00;99.90;;;;;;4985145;28;20438;-49
2020/12/03 16:09:36;;;;;;;1999.90;999.90;;;-1.00;99.90;;;;;;4985674;28;20497;-48
2020/12/03 16:12:04;;;;;;;1999.90;999.90;;;-1.00;99.90;;;;;;4985893;28;20479;-49
2020/12/03 16:14:29;;;;;;;1999.90;999.90;;;-0.90;99.90;;;;;;4987110;28;20200;-49
2020/12/03 16:16:55;;;;;;;1999.90;999.90;;;-0.90;99.90;;;;;;4987360;28;20846;-49
2020/12/03 16:19:20;;;;;;;1999.90;999.90;;;-0.90;99.90;;;;;;4988643;28;20226;-48
2020/12/03 16:21:46;;;;;;;1999.90;999.90;;;-1.00;99.90;;;;;;4986901;28;20231;-49
2020/12/03 16:24:13;;;;;;;1999.90;999.90;;;-1.00;99.90;;;;;;4985451;28;20771;-49
2020/12/03 16:26:39;;;;;;;1999.90;999.90;;;-1.00;99.90;;;;;;4988111;28;20445;-49
2020/12/03 16:29:07;;;;;;;1999.90;999.90;;;-1.00;99.90;;;;;;4986043;28;20439;-49
2020/12/03 16:31:36;;;;;;;1999.90;999.90;;;-0.90;99.90;;;;;;4987168;28;22307;-49
2020/12/03 16:34:03;;;;;;;1999.90;999.90;;;-1.00;99.90;;;;;;4984105;28;20539;-49
2020/12/03 16:36:31;;;;;;;1999.90;999.90;;;-1.00;99.90;;;;;;4984841;28;20554;-48
2020/12/03 16:38:57;;;;;;;1999.90;999.90;;;-0.90;99.90;;;;;;4988288;28;20434;-49
2020/12/03 16:41:26;;;;;;;1999.90;999.90;;;-0.90;99.90;;;;;;4987951;28;20552;-49
2020/12/03 16:43:52;;;;;;;1999.90;999.90;;;-0.80;99.90;;;;;;4987461;28;20523;-48
2020/12/03 16:46:18;;;;;;;1999.90;999.90;;;-0.90;99.90;;;;;;4986305;28;20517;-48
2020/12/03 16:48:44;;;;;;;1999.90;999.90;;;-0.80;99.90;;;;;;4985246;28;20521;-49
2020/12/03 16:51:11;;;;;;;1999.90;999.90;;;-0.80;99.90;;;;;;4983182;28;20463;-49
2020/12/03 16:53:36;;;;;;;1999.90;999.90;;;-0.90;99.90;;;;;;4986318;28;20446;-49
2020/12/03 16:56:02;;;;;;;1999.90;999.90;;;-0.90;99.90;;;;;;4988586;28;20934;-50
2020/12/03 16:58:28;;;;;;;1999.90;999.90;;;-0.90;99.90;;;;;;4984561;28;20192;-49
2020/12/03 17:00:54;;;;;;;1999.90;999.90;;;-0.90;99.90;;;;;;4980392;28;20220;-49
2020/12/03 17:03:20;;;;;;;1999.90;999.90;;;-0.90;99.90;;;;;;4981120;28;20203;-49
2020/12/03 17:05:46;;;;;;;1999.90;999.90;;;-0.90;99.90;;;;;;4983685;28;20223;-49
2020/12/03 17:08:12;;;;;;;1999.90;999.90;;;-0.90;99.90;;;;;;4988167;28;20470;-48
2020/12/03 17:10:38;;;;;;;1999.90;999.90;;;-0.90;99.90;;;;;;4983747;28;20497;-49
2020/12/03 17:13:03;;;;;;;1999.90;999.90;;;-1.00;99.90;;;;;;4980790;28;20439;-49
2020/12/03 17:15:29;;;;;;;1999.90;999.90;;;-0.90;99.90;;;;;;4986332;28;20947;-49
2020/12/03 17:17:55;;;;;;;1999.90;999.90;;;-0.90;99.90;;;;;;4984645;28;20188;-49
2020/12/03 17:20:21;;;;;;;1999.90;999.90;;;-0.90;99.90;;;;;;4978512;28;20487;-50
2020/12/03 17:22:47;;;;;;;1999.90;999.90;;;-0.90;99.90;;;;;;4982511;28;20932;-49
2020/12/03 17:25:12;;;;;;;1999.90;999.90;;;-0.90;99.90;;;;;;4983031;28;20450;-49
2020/12/03 17:27:38;;;;;;;1999.90;999.90;;;-0.90;99.90;;;;;;4979302;28;20188;-50
2020/12/03 17:30:04;;;;;;;1999.90;999.90;;;-0.90;99.90;;;;;;4981342;28;20188;-49
2020/12/03 17:32:37;;;;;;;1999.90;999.90;;;-0.90;99.90;;;;;;4983205;28;20267;-48
2020/12/03 17:35:07;;;;;;;1999.90;999.90;;;-0.90;99.90;;;;;;4985475;28;20481;-49
2020/12/03 17:37:39;;;;;;;1999.90;999.90;;;-0.90;99.90;;;;;;4979734;28;20443;-49
2020/12/03 17:40:06;;;;;;;1999.90;999.90;;;-0.90;99.90;;;;;;4985303;28;20467;-49
2020/12/03 17:42:32;;;;;;;1999.90;999.90;;;-0.90;99.90;;;;;;4984728;28;20545;-49
2020/12/03 17:45:00;;;;;;;1999.90;999.90;;;-0.90;99.90;;;;;;4981829;28;20970;-49
2020/12/03 17:47:26;;;;;;;1999.90;999.90;;;-0.90;99.90;;;;;;4984283;28;20439;-49
2020/12/03 17:49:52;;;;;;;1999.90;999.90;;;-0.90;99.90;;;;;;4978202;28;20458;-49
2020/12/03 17:52:18;;;;;;;1999.90;999.90;;;-0.90;99.90;;;;;;4976573;28;20450;-49
2020/12/03 17:54:43;;;;;;;1999.90;999.90;;;-1.00;99.90;;;;;;4982293;28;20238;-49
2020/12/03 17:57:10;;;;;;;1999.90;999.90;;;-1.00;99.90;;;;;;4980258;28;20715;-49
2020/12/03 17:59:35;;;;;;;1999.90;999.90;;;-1.10;99.90;;;;;;4979420;28;20661;-50
2020/12/03 18:02:01;;;;;;;1999.90;999.90;;;-1.30;99.90;;;;;;4981081;28;20462;-49
2020/12/03 18:04:28;;;;;;;1999.90;999.90;;;-1.40;99.90;;;;;;4980892;28;20318;-49
2020/12/03 18:06:55;;;;;;;1999.90;999.90;;;-1.50;99.90;;;;;;4982130;28;20810;-49
2020/12/03 18:09:21;;;;;;;1999.90;999.90;;;-1.60;99.90;;;;;;4984524;28;20423;-48
2020/12/03 18:11:46;;;;;;;1999.90;999.90;;;-1.70;99.90;;;;;;4986083;28;21052;-49
2020/12/03 18:14:12;;;;;;;1999.90;999.90;;;-1.70;99.90;;;;;;4984905;28;20446;-50
2020/12/03 18:16:38;;;;;;;1999.90;999.90;;;-1.60;99.90;;;;;;4971167;28;20282;-48
2020/12/03 18:19:05;;;;;;;1999.90;999.90;;;-1.50;99.90;;;;;;4983677;28;20649;-48
2020/12/03 18:21:31;;;;;;;1999.90;999.90;;;-1.40;99.90;;;;;;4985251;28;20582;-48
2020/12/03 18:23:57;;;;;;;1999.90;999.90;;;-1.40;99.90;;;;;;4984219;28;20523;-50
2020/12/03 18:26:31;;;;;;;1999.90;999.90;;;-1.30;99.90;;;;;;4985208;28;20786;-49
2020/12/03 18:29:04;;;;;;;1999.90;999.90;;;-1.20;99.90;;;;;;4978801;28;20430;-49
2020/12/03 18:31:35;;;;;;;1999.90;999.90;;;-1.20;99.90;;;;;;4980744;28;20513;-49
2020/12/03 18:34:00;;;;;;;1999.90;999.90;;;-1.20;99.90;;;;;;4973188;28;20534;-48
2020/12/03 18:36:26;;;;;;;1999.90;999.90;;;-1.10;99.90;;;;;;4982266;28;20474;-48
2020/12/03 18:38:52;;;;;;;1999.90;999.90;;;-1.10;99.90;;;;;;4991277;28;20200;-48
2020/12/03 18:41:19;;;;;;;1999.90;999.90;;;-1.10;99.90;;;;;;4991460;28;20228;-48
2020/12/03 18:43:44;;;;;;;1999.90;999.90;;;-1.00;99.90;;;;;;4990733;28;20649;-47
2020/12/03 18:46:10;;;;;;;1999.90;999.90;;;-1.00;99.90;;;;;;4986817;28;20443;-48
2020/12/03 18:48:35;;;;;;;1999.90;999.90;;;-0.90;99.90;;;;;;4981066;28;20196;-48
2020/12/03 18:51:01;;;;;;;1999.90;999.90;;;-0.90;99.90;;;;;;4973455;28;20227;-48
2020/12/03 18:53:27;;;;;;;1999.90;999.90;;;-0.90;99.90;;;;;;4991191;28;20263;-49
2020/12/03 18:55:53;;;;;;;1999.90;999.90;;;-0.90;99.90;;;;;;4991669;28;20214;-48
2020/12/03 18:58:18;;;;;;;1999.90;999.90;;;-0.90;99.90;;;;;;4982693;28;20282;-48
2020/12/03 19:00:44;;;;;;;1999.90;999.90;;;-0.80;99.90;;;;;;4984384;28;20222;-49
2020/12/03 19:03:17;;;;;;;1999.90;999.90;;;-0.80;99.90;;;;;;4985348;28;20184;-49
2020/12/03 19:05:44;;;;;;;1999.90;999.90;;;-0.80;99.90;;;;;;4986573;28;20951;-48
2020/12/03 19:08:14;;;;;;;1999.90;999.90;;;-0.80;99.90;;;;;;4985433;28;20526;-49
2020/12/03 19:10:41;;;;;;;1999.90;999.90;;;-0.70;99.90;;;;;;4988282;28;20479;-49
2020/12/03 19:13:07;;;;;;;1999.90;999.90;;;-0.70;99.90;;;;;;4987972;28;20802;-48
2020/12/03 19:15:34;;;;;;;1999.90;999.90;;;-0.70;99.90;;;;;;4985028;28;20439;-48
2020/12/03 19:18:01;;;;;;;1999.90;999.90;;;-0.70;99.90;;;;;;4981988;28;20673;-49
2020/12/03 19:20:27;;;;;;;1999.90;999.90;;;-0.70;99.90;;;;;;4986079;28;20470;-49
2020/12/03 19:22:53;;;;;;;1999.90;999.90;;;-0.70;99.90;;;;;;4986208;28;20428;-48
2020/12/03 19:25:19;;;;;;;1999.90;999.90;;;-0.70;99.90;;;;;;4984673;28;20446;-50
2020/12/03 19:27:45;;;;;;;1999.90;999.90;;;-0.60;99.90;;;;;;4987663;28;20446;-49
2020/12/03 19:30:11;;;;;;;1999.90;999.90;;;-0.60;99.90;;;;;;4986557;28;20517;-48
2020/12/03 19:32:41;;;;;;;1999.90;999.90;;;-0.60;99.90;;;;;;4988270;28;20188;-49
2020/12/03 19:35:08;;;;;;;1999.90;999.90;;;-0.60;99.90;;;;;;4982112;28;20450;-48
2020/12/03 19:37:34;;;;;;;1999.90;999.90;;;-0.50;99.90;;;;;;4987703;28;20467;-48
2020/12/03 19:40:00;;;;;;;1999.90;999.90;;;-0.50;99.90;;;;;;4986282;28;20470;-49
2020/12/03 19:42:26;;;;;;;1999.90;999.90;;;-0.50;99.90;;;;;;4988316;28;20435;-49
2020/12/03 19:44:52;;;;;;;1999.90;999.90;;;-0.50;99.90;;;;;;4986934;28;20485;-48
2020/12/03 19:47:18;;;;;;;1999.90;999.90;;;-0.40;99.90;;;;;;4985777;28;20441;-49
2020/12/03 19:49:44;;;;;;;1999.90;999.90;;;-0.40;99.90;;;;;;4985314;28;20898;-49
2020/12/03 19:52:10;;;;;;;1999.90;999.90;;;-0.40;99.90;;;;;;4986842;28;20459;-49
2020/12/03 19:54:35;;;;;;;1999.90;999.90;;;-0.40;99.90;;;;;;4988598;28;20443;-49
2020/12/03 19:57:01;;;;;;;1999.90;999.90;;;-0.40;99.90;;;;;;4988906;28;20942;-49
2020/12/03 19:59:27;;;;;;;1999.90;999.90;;;-0.40;99.90;;;;;;4988472;28;20529;-49
2020/12/03 20:01:53;;;;;;;1999.90;999.90;;;-0.40;99.90;;;;;;4989458;28;20445;-50
2020/12/03 20:04:19;;;;;;;1999.90;999.90;;;-0.40;99.90;;;;;;4990254;28;20441;-49
2020/12/03 20:06:44;;;;;;;1999.90;999.90;;;-0.40;99.90;;;;;;4991440;28;20430;-48
2020/12/03 20:09:10;;;;;;;1999.90;999.90;;;-0.40;99.90;;;;;;4990384;28;20179;-48
2020/12/03 20:11:36;;;;;;;1999.90;999.90;;;-0.40;99.90;;;;;;4978494;28;20223;-49
2020/12/03 20:14:03;;;;;;;1999.90;999.90;;;-0.40;99.90;;;;;;4992851;28;20278;-48
2020/12/03 20:16:29;;;;;;;1999.90;999.90;;;-0.40;99.90;;;;;;4988234;28;21034;-48
2020/12/03 20:18:55;;;;;;;1999.90;999.90;;;-0.40;99.90;;;;;;4987548;28;20446;-49
2020/12/03 20:21:21;;;;;;;1999.90;999.90;;;-0.40;99.90;;;;;;4988107;28;20537;-48
2020/12/03 20:23:48;;;;;;;1999.90;999.90;;;-0.40;99.90;;;;;;4988665;28;20652;-49
2020/12/03 20:26:17;;;;;;;1999.90;999.90;;;-0.40;99.90;;;;;;4987089;28;20443;-48
2020/12/03 20:28:44;;;;;;;1999.90;999.90;;;-0.40;99.90;;;;;;4988091;28;20438;-49
2020/12/03 20:31:17;;;;;;;1999.90;999.90;;;-0.40;99.90;;;;;;4986761;28;20466;-49
2020/12/03 20:33:44;;;;;;;1999.90;999.90;;;-0.50;99.90;;;;;;4986660;28;20921;-49
2020/12/03 20:36:11;;;;;;;1999.90;999.90;;;-0.50;99.90;;;;;;4986597;28;20553;-48
2020/12/03 20:38:37;;;;;;;1999.90;999.90;;;-0.40;99.90;;;;;;4987577;28;20454;-49
2020/12/03 20:41:03;;;;;;;1999.90;999.90;;;-0.40;99.90;;;;;;4988496;28;20466;-48
2020/12/03 20:43:29;;;;;;;1999.90;999.90;;;-0.40;99.90;;;;;;4987331;28;20192;-48
2020/12/03 20:45:55;;;;;;;1999.90;999.90;;;-0.40;99.90;;;;;;4987584;28;20453;-49
2020/12/03 20:48:21;;;;;;;1999.90;999.90;;;-0.40;99.90;;;;;;4983605;28;20188;-49
2020/12/03 20:50:46;;;;;;;1999.90;999.90;;;-0.40;99.90;;;;;;4983767;28;20497;-49
2020/12/03 20:53:17;;;;;;;1999.90;999.90;;;-0.50;99.90;;;;;;4980934;28;20192;-50
2020/12/03 20:55:46;;;;;;;1999.90;999.90;;;-0.50;99.90;;;;;;4982379;28;20291;-50
2020/12/03 20:58:13;;;;;;;1999.90;999.90;;;-0.40;99.90;;;;;;4985706;28;20449;-49
2020/12/03 21:00:39;;;;;;;1999.90;999.90;;;-0.50;99.90;;;;;;4981267;28;20478;-50
2020/12/03 21:03:05;;;;;;;1999.90;999.90;;;-0.50;99.90;;;;;;4977351;28;20473;-49
2020/12/03 21:05:31;;;;;;;1999.90;999.90;;;-0.50;99.90;;;;;;4982339;28;20439;-49
2020/12/03 21:07:57;;;;;;;1999.90;999.90;;;-0.60;99.90;;;;;;4986371;28;20443;-49
2020/12/03 21:10:23;;;;;;;1999.90;999.90;;;-0.60;99.90;;;;;;4988367;28;20479;-49
2020/12/03 21:12:49;;;;;;;1999.90;999.90;;;-0.80;99.90;;;;;;4988436;28;20246;-49
2020/12/03 21:15:14;;;;;;;1999.90;999.90;;;-0.90;99.90;;;;;;4986804;28;20443;-50
2020/12/03 21:17:40;;;;;;;1999.90;999.90;;;-1.00;99.90;;;;;;4988354;28;20451;-50
2020/12/03 21:20:06;;;;;;;1999.90;999.90;;;-1.20;99.90;;;;;;5006029;28;20215;-49
2020/12/03 21:22:32;;;;;;;1999.90;999.90;;;-1.30;99.90;;;;;;4988026;28;20445;-49
2020/12/03 21:24:58;;;;;;;1999.90;999.90;;;-1.40;99.90;;;;;;4975614;28;20439;-48
2020/12/03 21:27:24;;;;;;;1999.90;999.90;;;-1.40;99.90;;;;;;4987582;28;20202;-49
2020/12/03 21:29:52;;;;;;;1999.90;999.90;;;-1.50;99.90;;;;;;4985883;28;20506;-49
2020/12/03 21:32:17;;;;;;;1999.90;999.90;;;-1.50;99.90;;;;;;4987449;28;20542;-49
2020/12/03 21:34:43;;;;;;;1999.90;999.90;;;-1.60;99.90;;;;;;4985634;28;20537;-49
2020/12/03 21:37:09;;;;;;;1999.90;999.90;;;-1.60;99.90;;;;;;4987143;28;20195;-49
2020/12/03 21:39:34;;;;;;;1999.90;999.90;;;-1.60;99.90;;;;;;4988161;28;20554;-48
2020/12/03 21:42:00;;;;;;;1999.90;999.90;;;-1.70;99.90;;;;;;4988372;28;20215;-49
2020/12/03 21:44:26;;;;;;;1999.90;999.90;;;-1.60;99.90;;;;;;4992867;28;20249;-49
2020/12/03 21:46:51;;;;;;;1999.90;999.90;;;-1.70;99.90;;;;;;5005162;28;20183;-50
2020/12/03 21:49:17;;;;;;;1999.90;999.90;;;-1.70;99.90;;;;;;5008034;28;20209;-50
2020/12/03 21:51:42;;;;;;;1999.90;999.90;;;-1.70;99.90;;;;;;5003723;28;20219;-50
2020/12/03 21:54:09;;;;;;;1999.90;999.90;;;-1.70;99.90;;;;;;5008687;28;20190;-50
2020/12/03 21:56:34;;;;;;;1999.90;999.90;;;-1.70;99.90;;;;;;5012592;28;20563;-49
2020/12/03 21:59:00;;;;;;;1999.90;999.90;;;-1.80;99.90;;;;;;4995963;28;20443;-49
2020/12/03 22:01:26;;;;;;;1999.90;999.90;;;-1.80;99.90;;;;;;4998686;28;20490;-49
2020/12/03 22:03:51;;;;;;;1999.90;999.90;;;-1.80;99.90;;;;;;5009631;28;20651;-49
2020/12/03 22:06:18;;;;;;;1999.90;999.90;;;-1.80;99.90;;;;;;4994442;28;20237;-49
2020/12/03 22:08:43;;;;;;;1999.90;999.90;;;-1.80;99.90;;;;;;4996619;28;20180;-51
2020/12/03 22:11:16;;;;;;;1999.90;999.90;;;-1.80;99.90;;;;;;5000239;28;20509;-49
2020/12/03 22:13:42;;;;;;;1999.90;999.90;;;-1.90;99.90;;;;;;5013456;28;20190;-51
2020/12/03 22:16:07;;;;;;;1999.90;999.90;;;-1.90;99.90;;;;;;5010272;28;20769;-50
2020/12/03 22:18:34;;;;;;;1999.90;999.90;;;-1.90;99.90;;;;;;5009923;28;20171;-53
2020/12/03 22:21:00;;;;;;;1999.90;999.90;;;-2.00;99.90;;;;;;5013840;28;20230;-59
2020/12/03 22:23:25;;;;;;;1999.90;999.90;;;-2.10;99.90;;;;;;5018806;28;20461;-50
2020/12/03 22:25:51;;;;;;;1999.90;999.90;;;-2.10;99.90;;;;;;5014085;28;20198;-54
2020/12/03 22:28:16;;;;;;;1999.90;999.90;;;-2.10;99.90;;;;;;5014893;28;20199;-50
2020/12/03 22:30:43;;;;;;;1999.90;999.90;;;-2.20;99.90;;;;;;5012419;28;20221;-51